TimeEDT,TemperatureF,Dew PointF,Humidity,Sea Level PressureIn,VisibilityMPH,Wind Direction,Wind SpeedMPH,Gust SpeedMPH,PrecipitationIn,Events,Conditions,WindDirDegrees,DateUTC
12:35 AM,62.6,53.6,72,30.12,10.0,Calm,Calm,-,N/A,,Clear,0,2013-05-10 04:35:00
12:55 AM,59.0,51.8,77,30.12,10.0,Calm,Calm,-,N/A,,Clear,0,2013-05-10 04:55:00
1:35 AM,59.0,53.6,82,30.12,10.0,North,3.5,-,N/A,,Clear,10,2013-05-10 05:35:00
1:55 AM,57.2,53.6,88,30.11,10.0,Calm,Calm,-,N/A,,Clear,0,2013-05-10 05:55:00
2:15 AM,57.2,53.6,88,30.11,7.0,Calm,Calm,-,N/A,,Clear,0,2013-05-10 06:15:00
2:35 AM,57.2,53.6,88,30.09,7.0,Calm,Calm,-,N/A,,Clear,0,2013-05-10 06:35:00
2:55 AM,55.4,53.6,94,30.09,7.0,North,3.5,-,N/A,,Clear,10,2013-05-10 06:55:00
3:15 AM,57.2,53.6,88,30.09,4.0,Calm,Calm,-,N/A,,Clear,0,2013-05-10 07:15:00
3:35 AM,57.2,53.6,88,30.08,10.0,Calm,Calm,-,N/A,,Clear,0,2013-05-10 07:35:00
4:15 AM,55.4,53.6,94,30.07,7.0,Calm,Calm,-,N/A,,Clear,0,2013-05-10 08:15:00
4:55 AM,55.4,51.8,88,30.06,4.0,Calm,Calm,-,N/A,,Clear,0,2013-05-10 08:55:00
5:15 AM,53.6,51.8,94,30.06,4.0,Calm,Calm,-,N/A,,Clear,0,2013-05-10 09:15:00
5:35 AM,55.4,53.6,94,30.06,5.0,Calm,Calm,-,N/A,,Clear,0,2013-05-10 09:35:00
5:55 AM,55.4,51.8,88,30.05,5.0,Calm,Calm,-,N/A,,Clear,0,2013-05-10 09:55:00
6:15 AM,53.6,51.8,94,30.05,3.0,Calm,Calm,-,N/A,,Clear,0,2013-05-10 10:15:00
6:35 AM,53.6,51.8,94,30.06,4.0,Calm,Calm,-,N/A,,Clear,0,2013-05-10 10:35:00
6:55 AM,53.6,50.0,88,30.07,4.0,Calm,Calm,-,N/A,,Clear,0,2013-05-10 10:55:00
7:15 AM,53.6,51.8,94,30.08,2.0,Calm,Calm,-,N/A,,Clear,0,2013-05-10 11:15:00
7:35 AM,53.6,51.8,94,30.08,4.0,Calm,Calm,-,N/A,,Clear,0,2013-05-10 11:35:00
7:55 AM,55.4,53.6,94,30.08,5.0,Calm,Calm,-,N/A,,Clear,0,2013-05-10 11:55:00
8:15 AM,57.2,55.4,94,30.09,10.0,Calm,Calm,-,N/A,,Clear,0,2013-05-10 12:15:00
8:35 AM,57.2,53.6,88,30.09,10.0,Calm,Calm,-,N/A,,Clear,0,2013-05-10 12:35:00
8:55 AM,60.8,55.4,82,30.10,10.0,Calm,Calm,-,N/A,,Clear,0,2013-05-10 12:55:00
9:15 AM,62.6,53.6,72,30.11,10.0,Calm,Calm,-,N/A,,Clear,0,2013-05-10 13:15:00
9:35 AM,64.4,53.6,68,30.10,10.0,Calm,Calm,-,N/A,,Clear,0,2013-05-10 13:35:00
9:55 AM,68.0,55.4,64,30.11,10.0,Calm,Calm,-,N/A,,Clear,0,2013-05-10 13:55:00
10:15 AM,69.8,53.6,56,30.12,10.0,SW,3.5,-,N/A,,Scattered Clouds,230,2013-05-10 14:15:00
10:35 AM,69.8,51.8,53,30.12,10.0,West,5.8,-,N/A,,Mostly Cloudy,270,2013-05-10 14:35:00
10:55 AM,71.6,51.8,50,30.12,10.0,West,3.5,-,N/A,,Scattered Clouds,270,2013-05-10 14:55:00
11:15 AM,71.6,50.0,46,30.12,10.0,WSW,5.8,-,N/A,,Scattered Clouds,240,2013-05-10 15:15:00
11:35 AM,73.4,50.0,44,30.12,10.0,SW,5.8,-,N/A,,Scattered Clouds,230,2013-05-10 15:35:00
11:55 AM,73.4,50.0,44,30.12,10.0,SSW,8.1,-,N/A,,Clear,200,2013-05-10 15:55:00
12:15 PM,73.4,50.0,44,30.12,10.0,SW,8.1,-,N/A,,Clear,220,2013-05-10 16:15:00
12:35 PM,73.4,50.0,44,30.12,10.0,SW,5.8,-,N/A,,Clear,230,2013-05-10 16:35:00
12:55 PM,73.4,50.0,44,30.12,10.0,SW,5.8,-,N/A,,Clear,230,2013-05-10 16:55:00
1:15 PM,73.4,50.0,44,30.11,10.0,WSW,6.9,-,N/A,,Clear,240,2013-05-10 17:15:00
1:35 PM,73.4,50.0,44,30.10,10.0,SW,6.9,-,N/A,,Clear,220,2013-05-10 17:35:00
1:55 PM,75.2,50.0,41,30.09,10.0,SW,11.5,-,N/A,,Clear,220,2013-05-10 17:55:00
2:15 PM,77.0,50.0,39,30.08,10.0,SW,8.1,-,N/A,,Clear,230,2013-05-10 18:15:00
2:35 PM,77.0,50.0,39,30.08,10.0,SW,8.1,-,N/A,,Scattered Clouds,230,2013-05-10 18:35:00
2:55 PM,75.2,48.2,38,30.07,10.0,SW,5.8,-,N/A,,Scattered Clouds,230,2013-05-10 18:55:00
3:15 PM,75.2,48.2,38,30.06,10.0,SSW,6.9,-,N/A,,Scattered Clouds,210,2013-05-10 19:15:00
3:35 PM,75.2,46.4,36,30.05,10.0,SSW,8.1,-,N/A,,Clear,210,2013-05-10 19:35:00
3:55 PM,73.4,46.4,38,30.04,10.0,SW,6.9,-,N/A,,Clear,230,2013-05-10 19:55:00
4:15 PM,73.4,46.4,38,30.04,10.0,SW,6.9,-,N/A,,Clear,220,2013-05-10 20:15:00
4:35 PM,71.6,48.2,43,30.03,10.0,Calm,Calm,-,N/A,,Clear,0,2013-05-10 20:35:00
4:55 PM,71.6,50.0,46,30.03,10.0,Calm,Calm,-,N/A,,Clear,0,2013-05-10 20:55:00
5:15 PM,71.6,53.6,53,30.04,10.0,Calm,Calm,-,N/A,,Clear,0,2013-05-10 21:15:00
5:35 PM,71.6,51.8,50,30.04,10.0,Calm,Calm,-,N/A,,Scattered Clouds,0,2013-05-10 21:35:00
5:55 PM,71.6,51.8,50,30.00,10.0,Calm,Calm,-,N/A,,Clear,0,2013-05-10 21:55:00
6:15 PM,73.4,51.8,47,30.00,10.0,Calm,Calm,-,N/A,,Clear,0,2013-05-10 22:15:00
6:35 PM,73.4,50.0,44,30.00,10.0,SSW,3.5,-,N/A,,Scattered Clouds,200,2013-05-10 22:35:00
6:55 PM,71.6,51.8,50,30.00,10.0,Calm,Calm,-,N/A,,Overcast,0,2013-05-10 22:55:00
7:15 PM,71.6,51.8,50,30.00,10.0,Calm,Calm,-,N/A,,Mostly Cloudy,0,2013-05-10 23:15:00
7:35 PM,69.8,55.4,60,29.99,10.0,Calm,Calm,-,N/A,,Overcast,0,2013-05-10 23:35:00
7:55 PM,69.8,51.8,53,29.99,10.0,Calm,Calm,-,N/A,,Overcast,0,2013-05-10 23:55:00
8:15 PM,69.8,53.6,56,30.00,10.0,SW,4.6,-,N/A,,Overcast,220,2013-05-11 00:15:00
8:35 PM,69.8,51.8,53,30.01,10.0,Calm,Calm,-,N/A,,Overcast,0,2013-05-11 00:35:00
8:55 PM,69.8,51.8,53,30.01,10.0,SW,4.6,-,N/A,,Overcast,220,2013-05-11 00:55:00
9:15 PM,69.8,51.8,53,30.01,10.0,SW,4.6,-,N/A,,Overcast,220,2013-05-11 01:15:00
9:35 PM,69.8,51.8,53,30.01,10.0,SW,6.9,-,N/A,,Overcast,220,2013-05-11 01:35:00
9:55 PM,69.8,51.8,53,30.02,10.0,SW,4.6,-,N/A,,Overcast,220,2013-05-11 01:55:00
10:15 PM,69.8,51.8,53,30.03,10.0,SW,6.9,-,N/A,,Overcast,220,2013-05-11 02:15:00
10:35 PM,68.0,51.8,56,30.02,10.0,SW,4.6,-,N/A,,Overcast,220,2013-05-11 02:35:00
10:55 PM,68.0,51.8,56,30.02,10.0,Calm,Calm,-,N/A,,Overcast,0,2013-05-11 02:55:00
11:15 PM,68.0,51.8,56,30.02,10.0,SW,3.5,-,N/A,,Overcast,220,2013-05-11 03:15:00
11:35 PM,66.2,51.8,60,30.03,10.0,Calm,Calm,-,N/A,,Overcast,0,2013-05-11 03:35:00
11:55 PM,66.2,51.8,60,30.02,10.0,Calm,Calm,-,N/A,,Overcast,0,2013-05-11 03:55:00